Time;durP1;ratioP1;P1;durP2;ratioP2;P2;SDS_P1;SDS_P2;PMS_P1;PMS_P2;Temp;Humidity;BMP_temperature;BMP_pressure;BME280_temperature;BME280_humidity;BME280_pressure;Samples;Min_cycle;Max_cycle;Signal;HPM_P1;HPM_P2
2023/03/26 00:01:04;;;;;;;11.65;7.00;;;307.80;2304.00;;;;;;5094353;28;20035;-79
2023/03/26 00:03:32;;;;;;;12.52;7.63;;;307.50;2304.00;;;;;;5075986;28;20490;-80
2023/03/26 00:06:11;;;;;;;9.95;6.07;;;307.70;2304.00;;;;;;5081338;28;20518;-79
2023/03/26 00:08:38;;;;;;;8.95;5.70;;;307.70;2304.00;;;;;;5084579;28;20157;-79
2023/03/26 00:11:06;;;;;;;8.95;5.43;;;307.80;2304.00;;;;;;5094212;28;20020;-79
2023/03/26 00:13:55;;;;;;;15.30;10.18;;;307.70;2304.00;;;;;;5075478;28;20058;-86
2023/03/26 00:16:22;;;;;;;9.07;5.45;;;307.80;2304.00;;;;;;5075933;28;20437;-79
2023/03/26 00:18:47;;;;;;;10.00;5.28;;;307.70;2304.00;;;;;;5075833;28;20440;-80
2023/03/26 00:21:20;;;;;;;11.80;6.28;;;307.80;2304.00;;;;;;5075693;28;20111;-79
2023/03/26 00:23:47;;;;;;;8.77;5.80;;;307.80;2304.00;;;;;;5075745;28;20016;-79
2023/03/26 00:26:16;;;;;;;7.97;4.80;;;307.90;2304.00;;;;;;5075688;28;20064;-77
2023/03/26 00:28:42;;;;;;;8.57;5.13;;;307.90;2304.00;;;;;;5091902;28;20111;-80
2023/03/26 00:31:11;;;;;;;11.25;6.38;;;307.80;2304.00;;;;;;5075048;28;20028;-80
2023/03/26 00:33:39;;;;;;;12.23;5.85;;;307.90;2304.00;;;;;;5075054;28;20047;-80
2023/03/26 00:36:13;;;;;;;11.27;4.88;;;308.00;2304.00;;;;;;5075767;28;20070;-81
2023/03/26 00:38:39;;;;;;;7.43;4.32;;;307.90;2304.00;;;;;;5075634;28;20483;-80
2023/03/26 00:41:16;;;;;;;8.15;4.00;;;308.00;2304.00;;;;;;5075758;28;20028;-80
2023/03/26 00:43:44;;;;;;;8.25;3.92;;;308.00;2304.00;;;;;;5075795;28;20127;-81
2023/03/26 00:46:10;;;;;;;7.55;4.57;;;307.90;2304.00;;;;;;5075444;28;20036;-80
2023/03/26 00:48:37;;;;;;;6.80;3.90;;;308.00;2304.00;;;;;;5075368;28;20076;-81
2023/03/26 00:51:04;;;;;;;5.65;3.47;;;308.00;2304.00;;;;;;5075628;28;20094;-82
2023/03/26 00:53:31;;;;;;;8.15;4.00;;;308.10;2304.00;;;;;;5074545;28;20115;-81
2023/03/26 00:55:59;;;;;;;7.97;4.03;;;308.10;2304.00;;;;;;5075242;28;20024;-81
2023/03/26 00:58:25;;;;;;;9.18;5.00;;;308.10;2304.00;;;;;;5074641;28;20036;-82
2023/03/26 01:01:03;;;;;;;9.93;5.20;;;308.10;2304.00;;;;;;5075555;28;20459;-81
2023/03/26 01:03:32;;;;;;;11.52;6.20;;;308.10;2304.00;;;;;;5074273;28;20028;-81
2023/03/26 01:06:08;;;;;;;12.93;5.28;;;332.80;2329.60;;;;;;5096196;28;20190;-81
2023/03/26 01:08:45;;;;;;;9.90;5.50;;;332.80;2329.60;;;;;;5077789;28;20034;-80
2023/03/26 01:11:41;;;;;;;11.07;5.10;;;308.10;2304.00;;;;;;5097378;28;20030;-83
2023/03/26 01:14:14;;;;;;;13.07;5.75;;;308.10;2304.00;;;;;;5095299;28;20046;-81
2023/03/26 01:16:50;;;;;;;12.15;4.88;;;308.10;2304.00;;;;;;5083232;28;20032;-80
2023/03/26 01:19:41;;;;;;;10.18;5.10;;;332.80;2329.60;;;;;;5075092;28;20028;-80
2023/03/26 01:22:09;;;;;;;8.38;4.30;;;308.10;2304.00;;;;;;5067674;28;20066;-80
2023/03/26 01:24:36;;;;;;;8.50;5.45;;;332.80;2329.60;;;;;;5065992;28;20089;-80
2023/03/26 01:27:16;;;;;;;6.38;4.10;;;332.80;2329.60;;;;;;5075066;28;20066;-80
2023/03/26 01:29:52;;;;;;;8.93;4.72;;;332.80;2329.60;;;;;;5059003;28;20440;-80
2023/03/26 01:32:38;;;;;;;9.65;5.03;;;332.80;2329.60;;;;;;5092914;28;20040;-80
2023/03/26 01:35:25;;;;;;;8.45;4.90;;;332.80;2329.60;;;;;;5075111;28;20028;-80
2023/03/26 01:37:57;;;;;;;7.88;4.57;;;332.80;2329.60;;;;;;5059849;28;20429;-80
2023/03/26 01:40:52;;;;;;;8.70;4.95;;;308.10;2304.00;;;;;;5065285;28;20052;-80
2023/03/26 01:43:30;;;;;;;10.02;5.18;;;332.90;2329.60;;;;;;5093470;28;20115;-80
2023/03/26 01:46:00;;;;;;;8.98;5.20;;;332.90;2329.60;;;;;;5068862;28;20098;-79
2023/03/26 01:48:41;;;;;;;6.55;4.10;;;332.80;2329.60;;;;;;5072493;28;20024;-78
2023/03/26 01:51:08;;;;;;;11.60;9.40;;;332.80;2329.60;;;;;;5088663;28;20039;-80
2023/03/26 01:53:41;;;;;;;8.02;5.75;;;332.80;2329.60;;;;;;5075316;28;20463;-82
2023/03/26 01:56:34;;;;;;;8.38;4.40;;;332.80;2329.60;;;;;;5075189;28;20027;-82
2023/03/26 01:59:30;;;;;;;6.53;4.38;;;332.90;2329.60;;;;;;5075152;28;20149;-80
2023/03/26 02:02:20;;;;;;;7.10;4.40;;;332.80;2329.60;;;;;;5093036;28;20043;-81
2023/03/26 02:04:47;;;;;;;5.38;3.33;;;332.80;2329.60;;;;;;5081435;28;20035;-80
2023/03/26 02:07:28;;;;;;;7.97;3.45;;;308.10;2304.00;;;;;;5078431;28;20039;-81
2023/03/26 02:09:58;;;;;;;4.88;2.90;;;308.10;2304.00;;;;;;5078786;28;20027;-80
2023/03/26 02:12:25;;;;;;;6.50;3.33;;;307.90;2304.00;;;;;;5096736;28;20035;-81
2023/03/26 02:14:51;;;;;;;5.72;3.15;;;308.00;2304.00;;;;;;5078670;28;20050;-80
2023/03/26 02:17:18;;;;;;;7.47;3.67;;;307.90;2304.00;;;;;;5078540;28;20530;-80
2023/03/26 02:19:44;;;;;;;4.70;2.80;;;307.90;2304.00;;;;;;5079022;28;20067;-79
2023/03/26 02:22:14;;;;;;;6.88;3.35;;;308.00;2304.00;;;;;;5078725;28;20024;-81
2023/03/26 02:24:41;;;;;;;5.28;3.00;;;308.00;2304.00;;;;;;5078641;28;20080;-80
2023/03/26 02:27:07;;;;;;;4.82;2.67;;;307.90;2304.00;;;;;;5078303;28;20038;-81
2023/03/26 02:29:37;;;;;;;6.53;3.30;;;307.80;2304.00;;;;;;5078401;28;20028;-80
2023/03/26 02:32:07;;;;;;;6.35;2.67;;;307.80;2304.00;;;;;;5078036;28;20377;-80
2023/03/26 02:34:33;;;;;;;6.75;3.30;;;307.80;2304.00;;;;;;5078178;28;20077;-80
2023/03/26 02:36:59;;;;;;;5.88;3.47;;;307.90;2304.00;;;;;;5078142;28;20031;-80
2023/03/26 02:39:25;;;;;;;7.82;3.47;;;307.90;2304.00;;;;;;5078312;28;20067;-80
2023/03/26 02:41:51;;;;;;;7.30;3.72;;;308.00;2304.00;;;;;;5078033;28;20052;-80
2023/03/26 02:44:17;;;;;;;7.70;3.45;;;308.10;2304.00;;;;;;5078064;28;20024;-80
2023/03/26 02:46:42;;;;;;;6.22;3.67;;;308.10;2304.00;;;;;;5077972;28;20039;-80
2023/03/26 02:49:08;;;;;;;6.90;3.85;;;308.10;2304.00;;;;;;5078099;28;20056;-80
2023/03/26 02:51:34;;;;;;;8.45;3.35;;;308.10;2304.00;;;;;;5076370;28;20089;-80
2023/03/26 02:54:01;;;;;;;4.75;2.60;;;308.00;2304.00;;;;;;5077207;28;20463;-80
2023/03/26 02:56:27;;;;;;;5.18;2.83;;;307.90;2304.00;;;;;;5077286;28;20032;-80
2023/03/26 02:58:53;;;;;;;7.32;3.72;;;308.00;2304.00;;;;;;5077987;28;20027;-80
2023/03/26 03:01:18;;;;;;;6.75;3.83;;;308.00;2304.00;;;;;;5077777;28;20031;-80
2023/03/26 03:03:48;;;;;;;5.03;3.35;;;308.00;2304.00;;;;;;5077850;28;20025;-81
2023/03/26 03:06:18;;;;;;;9.93;3.97;;;308.00;2304.00;;;;;;5077547;28;20417;-80
2023/03/26 03:08:45;;;;;;;5.75;3.58;;;308.00;2304.00;;;;;;5095768;28;20028;-80
2023/03/26 03:11:16;;;;;;;7.93;4.72;;;307.90;2304.00;;;;;;5077749;28;20024;-81
2023/03/26 03:13:43;;;;;;;5.93;3.90;;;307.90;2304.00;;;;;;5077701;28;20437;-81
2023/03/26 03:16:09;;;;;;;7.18;4.03;;;307.90;2304.00;;;;;;5076534;28;20386;-81
2023/03/26 03:18:36;;;;;;;7.05;3.90;;;307.90;2304.00;;;;;;5077355;28;20046;-81
2023/03/26 03:21:03;;;;;;;8.32;4.38;;;307.90;2304.00;;;;;;5095356;28;20192;-80
2023/03/26 03:23:28;;;;;;;11.75;4.88;;;307.90;2304.00;;;;;;5076979;28;20024;-80
2023/03/26 03:25:56;;;;;;;9.57;5.80;;;308.00;2304.00;;;;;;5077232;28;20039;-80
2023/03/26 03:28:23;;;;;;;8.68;5.25;;;307.90;2304.00;;;;;;5077259;28;20028;-80
2023/03/26 03:30:52;;;;;;;5.65;3.25;;;307.90;2304.00;;;;;;5094947;28;20032;-80
2023/03/26 03:33:21;;;;;;;4.47;2.53;;;307.70;2304.00;;;;;;5076843;28;20506;-81
2023/03/26 03:35:48;;;;;;;7.60;3.95;;;307.60;2304.00;;;;;;5094767;28;20122;-80
2023/03/26 03:38:18;;;;;;;16.15;8.60;;;307.50;2304.00;;;;;;5077099;28;20039;-81
2023/03/26 03:40:44;;;;;;;11.90;7.38;;;307.50;2304.00;;;;;;5077103;28;20185;-80
2023/03/26 03:43:10;;;;;;;14.52;8.20;;;307.60;2304.00;;;;;;5076876;28;20028;-80
2023/03/26 03:45:36;;;;;;;16.15;8.32;;;307.60;2304.00;;;;;;5095093;28;20466;-80
2023/03/26 03:48:02;;;;;;;15.90;8.32;;;307.40;2304.00;;;;;;5094819;28;20031;-81
2023/03/26 03:50:27;;;;;;;13.18;8.60;;;307.50;2304.00;;;;;;5095128;28;20024;-80
2023/03/26 03:52:54;;;;;;;13.00;8.25;;;307.50;2304.00;;;;;;5095170;28;20356;-80
2023/03/26 03:55:22;;;;;;;12.38;7.82;;;307.40;2304.00;;;;;;5076765;28;20051;-81
2023/03/26 03:57:48;;;;;;;23.83;10.30;;;307.30;2304.00;;;;;;5076593;28;20032;-81
2023/03/26 04:00:15;;;;;;;24.05;10.40;;;282.50;2278.40;;;;;;5076702;28;20028;-80
2023/03/26 04:02:41;;;;;;;23.98;10.88;;;282.50;2278.40;;;;;;5076677;28;20020;-81
2023/03/26 04:05:07;;;;;;;15.55;7.63;;;282.50;2278.40;;;;;;5094507;28;20081;-80
2023/03/26 04:07:33;;;;;;;11.90;5.72;;;282.50;2278.40;;;;;;5076427;28;20031;-80
2023/03/26 04:10:01;;;;;;;12.82;5.78;;;282.50;2278.40;;;;;;5076555;28;20020;-82
2023/03/26 04:12:28;;;;;;;11.30;6.60;;;282.30;2278.40;;;;;;5076325;28;20430;-81
2023/03/26 04:14:55;;;;;;;10.23;5.70;;;282.40;2278.40;;;;;;5076270;28;20056;-81
2023/03/26 04:17:21;;;;;;;8.75;4.45;;;282.40;2278.40;;;;;;5076384;28;20434;-81
2023/03/26 04:19:54;;;;;;;9.85;5.65;;;282.40;2278.40;;;;;;5076144;28;20024;-81
2023/03/26 04:22:20;;;;;;;10.77;5.68;;;282.30;2278.40;;;;;;5076143;28;20031;-80
2023/03/26 04:24:47;;;;;;;5.75;3.58;;;282.20;2278.40;;;;;;5075888;28;20032;-79
2023/03/26 04:27:23;;;;;;;6.78;3.63;;;282.20;2278.40;;;;;;5093857;28;20028;-80
2023/03/26 04:29:49;;;;;;;7.97;3.72;;;282.20;2278.40;;;;;;5075635;28;20137;-80
2023/03/26 04:32:28;;;;;;;5.63;3.70;;;282.20;2278.40;;;;;;5075624;28;20131;-80
2023/03/26 04:34:59;;;;;;;10.90;6.15;;;282.20;2278.40;;;;;;5075888;28;20032;-80
2023/03/26 04:37:33;;;;;;;11.77;7.93;;;282.20;2278.40;;;;;;5075873;28;20032;-80
2023/03/26 04:40:07;;;;;;;12.65;8.30;;;282.20;2278.40;;;;;;5075850;28;20035;-80
2023/03/26 04:42:33;;;;;;;12.93;8.57;;;282.00;2278.40;;;;;;5075935;28;20035;-80
2023/03/26 04:45:01;;;;;;;16.23;8.27;;;281.80;2278.40;;;;;;5075846;28;20452;-80
2023/03/26 04:47:27;;;;;;;13.90;8.27;;;281.90;2278.40;;;;;;5075864;28;20070;-80
2023/03/26 04:49:54;;;;;;;10.98;8.25;;;281.60;2278.40;;;;;;5092904;28;20116;-79
2023/03/26 04:52:20;;;;;;;14.90;8.35;;;281.60;2278.40;;;;;;5075069;28;20031;-80
2023/03/26 04:54:46;;;;;;;14.60;9.88;;;281.70;2278.40;;;;;;5092696;28;20023;-79
2023/03/26 04:57:26;;;;;;;15.23;9.07;;;281.80;2278.40;;;;;;5075880;28;20115;-79
2023/03/26 04:59:52;;;;;;;15.45;9.30;;;281.90;2278.40;;;;;;5054627;28;20655;-79
2023/03/26 05:02:19;;;;;;;13.60;8.82;;;256.80;2252.80;;;;;;5055063;28;20029;-80
2023/03/26 05:04:44;;;;;;;14.80;8.48;;;256.40;2252.80;;;;;;5055280;28;20478;-80
2023/03/26 05:07:16;;;;;;;15.70;9.27;;;256.40;2252.80;;;;;;5055453;28;20031;-80
2023/03/26 05:09:42;;;;;;;9.87;7.33;;;256.50;2252.80;;;;;;5055639;28;20038;-80
2023/03/26 05:12:08;;;;;;;13.38;7.72;;;256.60;2252.80;;;;;;5055509;28;20036;-80
2023/03/26 05:14:35;;;;;;;15.50;9.68;;;256.80;2252.80;;;;;;5055303;28;20033;-83
2023/03/26 05:17:04;;;;;;;16.38;9.73;;;256.90;2252.80;;;;;;5055502;28;20029;-80
2023/03/26 05:19:31;;;;;;;17.05;9.73;;;256.90;2252.80;;;;;;5055358;28;20032;-80
2023/03/26 05:21:57;;;;;;;10.07;6.78;;;281.70;2278.40;;;;;;5055323;28;20410;-80
2023/03/26 05:24:23;;;;;;;12.05;7.00;;;281.80;2278.40;;;;;;5055314;28;20069;-80
2023/03/26 05:26:50;;;;;;;13.27;7.30;;;281.70;2278.40;;;;;;5055142;28;20039;-80
2023/03/26 05:29:16;;;;;;;16.50;7.07;;;281.80;2278.40;;;;;;5055383;28;20111;-80
2023/03/26 05:31:43;;;;;;;14.02;9.05;;;281.80;2278.40;;;;;;5055128;28;20067;-81
2023/03/26 05:34:09;;;;;;;15.15;8.13;;;281.90;2278.40;;;;;;5055373;28;20025;-80
2023/03/26 05:36:35;;;;;;;11.00;7.80;;;282.00;2278.40;;;;;;5055143;28;20032;-80
2023/03/26 05:39:02;;;;;;;13.32;8.30;;;282.00;2278.40;;;;;;5055692;28;20054;-80
2023/03/26 05:41:28;;;;;;;14.50;8.25;;;282.00;2278.40;;;;;;5059211;28;20494;-80
2023/03/26 05:43:54;;;;;;;12.52;7.55;;;281.80;2278.40;;;;;;5058815;28;20048;-80
2023/03/26 05:46:21;;;;;;;13.95;8.48;;;281.70;2278.40;;;;;;5077239;28;20016;-80
2023/03/26 05:48:47;;;;;;;12.52;7.07;;;281.70;2278.40;;;;;;5058643;28;20032;-80
2023/03/26 05:51:14;;;;;;;11.18;8.02;;;281.60;2278.40;;;;;;5059079;28;20111;-80
2023/03/26 05:53:40;;;;;;;11.52;7.40;;;256.90;2252.80;;;;;;5059385;28;20493;-80
2023/03/26 05:56:07;;;;;;;11.60;8.10;;;256.90;2252.80;;;;;;5058656;28;20036;-80
2023/03/26 05:58:34;;;;;;;13.10;7.70;;;281.70;2278.40;;;;;;5095960;28;20126;-80
2023/03/26 06:01:07;;;;;;;11.70;7.70;;;281.60;2278.40;;;;;;5117099;28;20023;-80
2023/03/26 06:03:39;;;;;;;;;;;281.70;2278.40;;;;;;5098642;28;20023;-81
2023/03/26 06:06:14;;;;;;;15.52;8.68;;;281.70;2278.40;;;;;;5098829;28;19942;-80
2023/03/26 06:08:47;;;;;;;14.93;9.38;;;281.80;2278.40;;;;;;5099182;28;20023;-81
2023/03/26 06:11:14;;;;;;;10.80;7.43;;;281.80;2278.40;;;;;;5098729;28;20031;-80
2023/03/26 06:13:41;;;;;;;10.73;7.50;;;282.00;2278.40;;;;;;5098811;28;20036;-81
2023/03/26 06:16:08;;;;;;;12.52;8.30;;;281.80;2278.40;;;;;;5098968;28;20024;-81
2023/03/26 06:18:34;;;;;;;15.20;9.40;;;282.10;2278.40;;;;;;5117083;28;20047;-81
2023/03/26 06:21:00;;;;;;;20.60;12.90;;;282.20;2278.40;;;;;;5098906;28;20120;-81
2023/03/26 06:23:26;;;;;;;22.50;15.57;;;282.30;2278.40;;;;;;5098711;28;20020;-81
2023/03/26 06:25:51;;;;;;;21.15;14.15;;;307.20;2304.00;;;;;;5098650;28;20030;-81
2023/03/26 06:28:17;;;;;;;22.75;15.43;;;282.50;2278.40;;;;;;5086065;28;20123;-81
2023/03/26 06:30:43;;;;;;;21.40;14.35;;;282.50;2278.40;;;;;;5078219;28;20036;-81
2023/03/26 06:33:09;;;;;;;14.30;10.48;;;307.20;2304.00;;;;;;5077314;28;20165;-80
2023/03/26 06:35:35;;;;;;;16.50;9.48;;;307.30;2304.00;;;;;;5078345;28;20024;-80
2023/03/26 06:38:02;;;;;;;13.38;9.05;;;307.30;2304.00;;;;;;5078428;28;20028;-80
2023/03/26 06:40:28;;;;;;;12.32;8.63;;;282.50;2278.40;;;;;;5078676;28;20031;-80
2023/03/26 06:42:54;;;;;;;16.90;9.07;;;307.30;2304.00;;;;;;5099356;28;20038;-80
2023/03/26 06:45:20;;;;;;;14.48;9.50;;;307.30;2304.00;;;;;;5103656;28;20026;-80
2023/03/26 06:47:46;;;;;;;8.77;6.40;;;307.40;2304.00;;;;;;5103597;28;20015;-80
2023/03/26 06:50:12;;;;;;;11.02;6.72;;;307.40;2304.00;;;;;;5088946;28;20042;-80
2023/03/26 06:52:38;;;;;;;12.75;7.43;;;307.50;2304.00;;;;;;5096811;28;20020;-80
2023/03/26 06:55:05;;;;;;;7.47;4.93;;;307.60;2304.00;;;;;;5079616;28;20078;-81
2023/03/26 06:57:31;;;;;;;7.07;3.70;;;307.60;2304.00;;;;;;5080830;28;20058;-80
2023/03/26 06:59:57;;;;;;;5.95;3.75;;;307.60;2304.00;;;;;;5098733;28;20076;-81
2023/03/26 07:02:23;;;;;;;6.55;3.70;;;307.70;2304.00;;;;;;5097411;28;20118;-79
2023/03/26 07:04:48;;;;;;;6.00;3.63;;;307.80;2304.00;;;;;;5097966;28;20028;-80
2023/03/26 07:07:14;;;;;;;8.05;4.82;;;307.90;2304.00;;;;;;5097815;28;20462;-80
2023/03/26 07:09:40;;;;;;;7.18;4.82;;;307.80;2304.00;;;;;;5116044;28;20034;-80
2023/03/26 07:12:06;;;;;;;5.22;3.88;;;307.90;2304.00;;;;;;5097984;28;20031;-81
2023/03/26 07:14:31;;;;;;;8.02;6.43;;;307.90;2304.00;;;;;;5097585;28;20063;-81
2023/03/26 07:16:58;;;;;;;7.40;5.35;;;308.10;2304.00;;;;;;5097654;28;20055;-81
2023/03/26 07:19:25;;;;;;;10.80;7.28;;;308.10;2304.00;;;;;;5097684;28;20024;-81
2023/03/26 07:21:51;;;;;;;12.27;5.97;;;332.80;2329.60;;;;;;5097635;28;20020;-81
2023/03/26 07:24:17;;;;;;;7.72;4.97;;;332.90;2329.60;;;;;;5097879;28;20031;-81
2023/03/26 07:26:52;;;;;;;12.65;9.18;;;332.90;2329.60;;;;;;5097538;28;20035;-81
2023/03/26 07:29:24;;;;;;;8.60;5.88;;;332.90;2329.60;;;;;;5116110;28;20455;-83
2023/03/26 07:31:58;;;;;;;7.88;4.40;;;333.10;2329.60;;;;;;5097456;28;20554;-81
2023/03/26 07:34:47;;;;;;;9.18;4.80;;;333.00;2329.60;;;;;;5099642;28;20031;-80
2023/03/26 07:37:28;;;;;;;6.88;3.70;;;333.10;2329.60;;;;;;5116401;28;20044;-81
2023/03/26 07:39:56;;;;;;;7.18;4.75;;;333.10;2329.60;;;;;;5115768;28;20023;-79
2023/03/26 07:42:25;;;;;;;6.03;3.70;;;333.30;2329.60;;;;;;5097207;28;20019;-81
2023/03/26 07:45:07;;;;;;;8.23;3.33;;;333.40;2329.60;;;;;;5097220;28;20451;-80
2023/03/26 07:47:34;;;;;;;6.25;2.47;;;333.40;2329.60;;;;;;5097258;28;20038;-81
2023/03/26 07:50:00;;;;;;;6.85;4.05;;;333.60;2329.60;;;;;;5096524;28;20020;-80
2023/03/26 07:52:26;;;;;;;7.90;4.25;;;333.70;2329.60;;;;;;5097012;28;20381;-81
2023/03/26 07:54:52;;;;;;;6.93;4.00;;;333.70;2329.60;;;;;;5095858;28;20032;-82
2023/03/26 07:57:27;;;;;;;8.80;6.00;;;358.40;2329.60;;;;;;5097232;28;20024;-82
2023/03/26 08:00:31;;;;;;;8.40;4.97;;;358.50;2329.60;;;;;;5057250;28;20032;-82
2023/03/26 08:03:15;;;;;;;6.57;3.80;;;358.60;2329.60;;;;;;5007224;28;20111;-82
2023/03/26 08:05:50;;;;;;;5.45;3.83;;;358.60;2329.60;;;;;;5058647;28;20042;-81
2023/03/26 08:08:22;;;;;;;5.55;2.78;;;358.70;2329.60;;;;;;5058403;28;20025;-81
2023/03/26 08:11:06;;;;;;;4.32;2.58;;;358.80;2329.60;;;;;;5058524;28;20027;-82
2023/03/26 08:13:59;;;;;;;4.22;2.08;;;358.90;2329.60;;;;;;5058677;28;20040;-82
2023/03/26 08:16:39;;;;;;;3.78;1.98;;;358.90;2329.60;;;;;;5058057;28;20048;-82
2023/03/26 08:19:44;;;;;;;5.38;1.90;;;358.90;2329.60;;;;;;5057703;28;20543;-80
2023/03/26 08:22:39;;;;;;;3.20;1.67;;;358.90;2329.60;;;;;;5060283;28;20439;-81
2023/03/26 08:25:31;;;;;;;4.18;2.30;;;359.00;2329.60;;;;;;5075431;28;20044;-82
2023/03/26 08:28:32;;;;;;;3.15;1.60;;;359.00;2329.60;;;;;;5094552;28;20107;-82
2023/03/26 08:31:01;;;;;;;4.22;1.88;;;359.10;2329.60;;;;;;5075883;28;20031;-82
2023/03/26 08:33:28;;;;;;;6.78;2.35;;;359.20;2329.60;;;;;;5075807;28;20052;-81
2023/03/26 08:35:54;;;;;;;4.65;2.63;;;359.30;2329.60;;;;;;5075920;28;20445;-81
2023/03/26 08:38:21;;;;;;;5.07;2.25;;;384.00;2329.60;;;;;;5075589;28;20114;-81
2023/03/26 08:41:07;;;;;;;4.40;2.40;;;384.00;2329.60;;;;;;5075725;28;20035;-81
2023/03/26 08:44:09;;;;;;;5.55;1.85;;;384.10;2329.60;;;;;;5075634;28;20036;-81
2023/03/26 08:47:12;;;;;;;6.35;3.20;;;384.10;2304.00;;;;;;5075742;28;20028;-81
2023/03/26 08:50:03;;;;;;;6.37;2.73;;;384.20;2304.00;;;;;;5075738;28;20055;-81
2023/03/26 08:52:47;;;;;;;6.85;2.60;;;384.30;2278.40;;;;;;5029131;28;20321;-81
2023/03/26 08:55:40;;;;;;;5.18;2.95;;;384.40;2252.80;;;;;;5094093;28;20131;-83
2023/03/26 08:58:28;;;;;;;4.30;2.00;;;384.40;2201.60;;;;;;5076755;28;20036;-86
2023/03/26 09:01:17;;;;;;;4.82;2.78;;;384.50;2201.60;;;;;;5094501;28;20028;-85
2023/03/26 09:04:14;;;;;;;4.90;3.30;;;384.60;2201.60;;;;;;5076489;28;20028;-84
2023/03/26 09:07:05;;;;;;;4.70;2.60;;;384.70;2227.20;;;;;;5076023;28;20058;-85
2023/03/26 09:09:49;;;;;;;4.30;2.50;;;384.60;2252.80;;;;;;5076123;28;20056;-84
2023/03/26 09:12:52;;;;;;;7.88;1.58;;;384.60;2227.20;;;;;;5076138;28;20126;-86
2023/03/26 09:15:46;;;;;;;5.60;1.42;;;384.40;2227.20;;;;;;5078359;28;20032;-84
2023/03/26 09:18:39;;;;;;;4.80;1.50;;;384.40;2227.20;;;;;;5080204;28;20086;-83
2023/03/26 09:21:42;;;;;;;6.47;2.03;;;384.40;2201.60;;;;;;5080295;28;20035;-83
2023/03/26 09:24:27;;;;;;;9.25;1.90;;;384.70;2227.20;;;;;;5067804;28;20093;-85
2023/03/26 09:27:17;;;;;;;6.05;1.50;;;384.90;2252.80;;;;;;5079985;28;20057;-83
2023/03/26 09:30:04;;;;;;;3.00;1.45;;;409.70;2278.40;;;;;;5060165;28;20024;-82
2023/03/26 09:32:52;;;;;;;3.55;1.50;;;409.80;2252.80;;;;;;5059764;28;20053;-87
2023/03/26 09:35:45;;;;;;;4.45;2.30;;;409.90;2201.60;;;;;;5059843;28;20032;-81
2023/03/26 09:38:40;;;;;;;6.70;2.00;;;410.00;2201.60;;;;;;5077785;28;20037;-83
2023/03/26 09:41:16;;;;;;;5.05;1.90;;;410.00;2201.60;;;;;;5059755;28;20032;-83
2023/03/26 09:44:09;;;;;;;4.45;2.10;;;410.00;2176.00;;;;;;5081397;28;20017;-82
2023/03/26 09:47:11;;;;;;;4.15;2.42;;;410.20;2201.60;;;;;;5079157;28;20031;-79
2023/03/26 09:50:09;;;;;;;3.85;2.28;;;410.20;2201.60;;;;;;5078332;28;20506;-81
2023/03/26 09:52:49;;;;;;;3.80;1.88;;;410.20;2176.00;;;;;;5078970;28;20030;-83
2023/03/26 09:55:33;;;;;;;5.68;2.80;;;410.30;2150.40;;;;;;5079328;28;20028;-82
2023/03/26 09:58:20;;;;;;;5.00;2.67;;;410.30;2124.80;;;;;;5079254;28;20099;-83
2023/03/26 10:00:46;;;;;;;5.28;2.20;;;;;;;;;;5079614;28;20468;-86
2023/03/26 10:03:51;;;;;;;5.10;2.60;;;435.60;2124.80;;;;;;5079548;28;20047;-82
2023/03/26 10:06:51;;;;;;;13.30;3.78;;;435.70;2048.00;;;;;;5028290;28;20509;-79
2023/03/26 10:09:37;;;;;;;5.78;2.40;;;435.80;1996.80;;;;;;5085074;28;20494;-81
2023/03/26 10:12:14;;;;;;;5.63;2.30;;;435.60;1996.80;;;;;;5080561;28;20042;-83
2023/03/26 10:15:02;;;;;;;2.95;1.67;;;435.70;2022.40;;;;;;5079319;28;20520;-84
2023/03/26 10:17:32;;;;;;;6.30;2.80;;;435.70;1971.20;;;;;;5079118;28;20020;-84
2023/03/26 10:20:08;;;;;;;5.40;3.53;;;435.70;1971.20;;;;;;5078613;28;20036;-81
2023/03/26 10:23:01;;;;;;;5.13;1.38;;;435.80;1996.80;;;;;;5078688;28;20062;-80
2023/03/26 10:25:51;;;;;;;3.47;1.23;;;435.80;1971.20;;;;;;5078896;28;20123;-81
2023/03/26 10:28:32;;;;;;;3.25;1.70;;;435.90;1945.60;;;;;;5078750;28;20050;-83
2023/03/26 10:31:29;;;;;;;3.60;1.83;;;436.00;1945.60;;;;;;5078849;28;20478;-82
2023/03/26 10:34:01;;;;;;;2.83;1.40;;;460.80;1945.60;;;;;;4983726;28;20554;-83
2023/03/26 10:36:33;;;;;;;3.90;1.80;;;436.10;1894.40;;;;;;5045764;28;20029;-82
2023/03/26 10:39:37;;;;;;;5.43;2.97;;;461.10;1945.60;;;;;;5055539;28;20867;-81
2023/03/26 10:42:15;;;;;;;4.20;2.25;;;461.20;1868.80;;;;;;4991360;28;20030;-84
2023/03/26 10:45:06;;;;;;;7.72;3.53;;;461.30;1868.80;;;;;;4978419;28;20030;-82
2023/03/26 10:47:53;;;;;;;5.30;2.00;;;461.50;1843.20;;;;;;5018036;28;20080;-84
2023/03/26 10:50:25;;;;;;;7.03;3.75;;;461.60;1843.20;;;;;;5043860;28;20456;-80
2023/03/26 10:53:03;;;;;;;8.43;3.75;;;486.40;1817.60;;;;;;5054852;28;20060;-82
2023/03/26 10:55:45;;;;;;;7.35;3.13;;;486.40;1792.00;;;;;;5054340;28;20028;-81
2023/03/26 10:58:25;;;;;;;6.50;3.17;;;486.50;1792.00;;;;;;5054592;28;20481;-81
2023/03/26 11:01:11;;;;;;;7.13;1.67;;;;;;;;;;5054603;28;20112;-82
2023/03/26 11:03:53;;;;;;;4.93;2.05;;;486.90;1766.40;;;;;;5055349;28;20094;-80
2023/03/26 11:06:24;;;;;;;4.68;2.58;;;487.10;1792.00;;;;;;5074487;28;20119;-80
2023/03/26 11:08:59;;;;;;;5.53;1.92;;;512.10;1817.60;;;;;;5074206;28;20039;-82
2023/03/26 11:11:41;;;;;;;5.93;2.10;;;512.20;1792.00;;;;;;5074542;28;20025;-80
2023/03/26 11:14:13;;;;;;;3.50;1.73;;;512.30;1766.40;;;;;;5074652;28;20025;-82
2023/03/26 11:16:53;;;;;;;5.80;2.13;;;512.50;1766.40;;;;;;5075480;28;20039;-79
2023/03/26 11:19:43;;;;;;;5.50;2.50;;;512.70;1792.00;;;;;;5074174;28;20539;-83
2023/03/26 11:22:41;;;;;;;8.68;2.78;;;537.80;1766.40;;;;;;5073997;28;20031;-80
2023/03/26 11:25:27;;;;;;;4.45;2.85;;;538.20;1715.20;;;;;;5072195;28;20357;-80
2023/03/26 11:27:57;;;;;;;3.33;1.92;;;538.40;1689.60;;;;;;5074208;28;20531;-80
2023/03/26 11:30:41;;;;;;;4.68;2.58;;;538.50;1638.40;;;;;;5489329;22;20038;-79
2023/03/26 11:33:16;;;;;;;5.43;2.25;;;563.20;1638.40;;;;;;5053853;28;20376;-82
2023/03/26 11:35:47;;;;;;;4.82;2.60;;;563.30;1715.20;;;;;;5037723;28;20066;-82
2023/03/26 11:38:32;;;;;;;6.72;2.30;;;563.50;1638.40;;;;;;5036635;28;20120;-82
2023/03/26 11:41:00;;;;;;;3.95;2.03;;;563.20;1612.80;;;;;;5056089;28;20040;-81
2023/03/26 11:43:35;;;;;;;4.00;2.30;;;563.60;1638.40;;;;;;5037227;28;20052;-81
2023/03/26 11:46:09;;;;;;;5.10;2.03;;;563.70;1638.40;;;;;;5036754;28;20498;-82
2023/03/26 11:48:43;;;;;;;4.07;1.90;;;564.00;1612.80;;;;;;5038049;28;20121;-88
2023/03/26 11:51:25;;;;;;;4.00;2.22;;;564.00;1612.80;;;;;;5033897;28;20037;-86
2023/03/26 11:53:51;;;;;;;10.52;2.88;;;564.00;1638.40;;;;;;5018631;28;20067;-86
2023/03/26 11:56:23;;;;;;;5.28;3.42;;;588.80;1561.60;;;;;;5018368;28;20065;-87
2023/03/26 11:58:52;;;;;;;3.22;1.75;;;;;;;;;;5035282;28;20089;-85
2023/03/26 12:01:21;;;;;;;4.47;2.25;;;;;;;;;;5034561;28;20457;-89
2023/03/26 12:04:46;;;;;;;3.80;1.90;;;589.60;1510.40;;;;;;5018263;28;20025;-89
2023/03/26 12:07:32;;;;;;;5.60;3.47;;;589.70;1536.00;;;;;;4954994;28;20042;-88
2023/03/26 12:09:59;;;;;;;14.25;8.55;;;614.60;1638.40;;;;;;4955947;29;20463;-88
2023/03/26 12:12:30;;;;;;;5.88;3.40;;;614.70;1638.40;;;;;;5014552;28;20041;-87
2023/03/26 12:14:58;;;;;;;5.25;2.90;;;614.70;1612.80;;;;;;5034026;28;20567;-87
2023/03/26 12:17:33;;;;;;;9.82;6.93;;;614.80;1612.80;;;;;;5035376;28;20056;-88
2023/03/26 12:20:00;;;;;;;12.93;9.50;;;614.80;1536.00;;;;;;5034017;28;20029;-87
2023/03/26 12:22:37;;;;;;;7.25;5.50;;;614.90;1536.00;;;;;;5034161;28;20032;-89
2023/03/26 12:25:17;;;;;;;3.45;1.77;;;614.60;1536.00;;;;;;5034323;28;20096;-88
2023/03/26 12:28:16;;;;;;;6.78;4.13;;;589.70;1510.40;;;;;;5037194;28;20495;-88
2023/03/26 12:30:57;;;;;;;5.13;2.70;;;614.80;1561.60;;;;;;5037575;28;20048;-89
2023/03/26 12:33:33;;;;;;;5.32;2.95;;;614.70;1561.60;;;;;;5036988;28;20314;-88
2023/03/26 12:36:27;;;;;;;4.78;2.35;;;615.10;1561.60;;;;;;5037571;28;20087;-86
2023/03/26 12:38:54;;;;;;;6.50;2.58;;;615.30;1561.60;;;;;;5037571;28;20020;-87
2023/03/26 12:41:34;;;;;;;4.63;2.47;;;615.30;1510.40;;;;;;5036162;28;20456;-87
2023/03/26 12:44:43;;;;;;;4.13;2.45;;;640.20;1510.40;;;;;;5037305;28;20031;-88
2023/03/26 12:47:21;;;;;;;8.70;3.72;;;640.20;1510.40;;;;;;4996841;28;20041;-87
2023/03/26 12:49:50;;;;;;;8.05;6.47;;;640.40;1484.80;;;;;;5033389;28;20033;-85
2023/03/26 12:52:41;;;;;;;12.98;6.97;;;640.40;1536.00;;;;;;5036965;28;20066;-87